createdAt,value
2019-03-15T00:02:15.686Z,96516.17
2019-03-15T00:04:52.338Z,96512.52
2019-03-15T00:07:23.649Z,96525.03
2019-03-15T00:09:55.388Z,96537.95
2019-03-15T00:12:26.663Z,96540.08
2019-03-15T00:14:59.287Z,96546.91
2019-03-15T00:17:29.934Z,96554.19
2019-03-15T00:20:09.254Z,96557.27
2019-03-15T00:22:40.724Z,96559.74
2019-03-15T00:25:11.911Z,96558.58
2019-03-15T00:27:42.892Z,96549.07
2019-03-15T00:30:13.958Z,96555.59
2019-03-15T00:32:45.297Z,96545.44
2019-03-15T00:35:18.983Z,96544.73
2019-03-15T00:37:51.007Z,96546.20
2019-03-15T00:40:21.586Z,96554.51
2019-03-15T00:42:52.642Z,96547.11
2019-03-15T00:45:23.326Z,96545.59
2019-03-15T00:47:54.522Z,96554.59
2019-03-15T00:50:31.994Z,96543.77
2019-03-15T00:53:03.929Z,96549.98
2019-03-15T00:55:37.120Z,96551.18
2019-03-15T00:58:08.289Z,96551.34
2019-03-15T01:00:39.624Z,96548.16
2019-03-15T01:03:11.137Z,96556.92
2019-03-15T01:05:43.024Z,96554.56
2019-03-15T01:08:13.715Z,96547.59
2019-03-15T01:10:45.552Z,96550.16
2019-03-15T01:13:16.693Z,96552.86
2019-03-15T01:15:48.279Z,96551.45
2019-03-15T01:18:20.277Z,96557.75
2019-03-15T01:20:51.883Z,96565.37
2019-03-15T01:23:23.479Z,96555.21
2019-03-15T01:25:55.680Z,96558.95
2019-03-15T01:28:26.768Z,96563.27
2019-03-15T01:30:58.083Z,96557.02
2019-03-15T01:33:30.068Z,96562.03
2019-03-15T01:36:01.835Z,96566.91
2019-03-15T01:38:35.250Z,96564.39
2019-03-15T01:41:07.013Z,96564.82
2019-03-15T01:43:40.600Z,96562.13
2019-03-15T01:46:12.050Z,96553.70
2019-03-15T01:48:44.301Z,96550.56
2019-03-15T01:51:16.000Z,96553.17
2019-03-15T01:53:48.424Z,96566.19
2019-03-15T01:56:57.684Z,96572.62
2019-03-15T01:59:31.785Z,96572.91
2019-03-15T03:01:53.730Z,96581.96
2019-03-15T03:04:26.546Z,96585.69
2019-03-15T03:06:58.322Z,96590.55
2019-03-15T03:09:29.460Z,96590.17
2019-03-15T03:12:03.735Z,96593.36
2019-03-15T03:14:35.258Z,96586.92
2019-03-15T03:17:06.368Z,96580.36
2019-03-15T03:19:38.024Z,96577.07
2019-03-15T03:22:09.434Z,96587.62
2019-03-15T03:24:40.683Z,96585.61
2019-03-15T03:27:14.819Z,96592.13
2019-03-15T03:29:48.535Z,96585.11
2019-03-15T03:32:19.946Z,96580.16
2019-03-15T03:34:51.741Z,96577.05
2019-03-15T03:37:24.207Z,96573.70
2019-03-15T03:39:54.871Z,96568.52
2019-03-15T03:42:26.551Z,96567.70
2019-03-15T03:44:57.564Z,96562.75
2019-03-15T03:47:27.858Z,96558.45
2019-03-15T03:49:59.099Z,96563.83
2019-03-15T03:52:31.080Z,96566.48
2019-03-15T03:55:01.720Z,96557.55
2019-03-15T03:57:32.978Z,96559.73
2019-03-15T04:00:06.063Z,96560.80
2019-03-15T04:02:37.388Z,96560.81
2019-03-15T04:05:08.496Z,96563.24
2019-03-15T04:07:40.411Z,96565.30
2019-03-15T04:10:13.953Z,96559.59
2019-03-15T04:12:45.054Z,96571.58
2019-03-15T04:15:16.235Z,96563.06
2019-03-15T04:17:47.221Z,96569.27
2019-03-15T04:20:18.398Z,96562.98
2019-03-15T04:22:49.117Z,96564.31
2019-03-15T04:25:20.442Z,96570.56
2019-03-15T04:27:51.738Z,96575.42
2019-03-15T04:30:23.237Z,96579.46
2019-03-15T04:32:54.390Z,96577.32
2019-03-15T04:35:28.821Z,96580.01
2019-03-15T04:38:00.672Z,96575.61
2019-03-15T04:40:32.042Z,96579.89
2019-03-15T04:43:02.691Z,96578.02
2019-03-15T04:45:34.505Z,96570.53
2019-03-15T04:48:05.714Z,96573.95
2019-03-15T04:50:37.215Z,96574.92
2019-03-15T04:53:16.010Z,96570.07
2019-03-15T04:55:47.480Z,96569.63
2019-03-15T04:58:17.873Z,96573.13
2019-03-15T05:00:49.788Z,96579.08
2019-03-15T05:03:21.616Z,96573.63
2019-03-15T05:06:03.266Z,96580.09
2019-03-15T05:08:26.722Z,96589.13
2019-03-15T05:11:01.104Z,96583.98
2019-03-15T05:13:32.950Z,96583.20
2019-03-15T05:16:04.664Z,96585.50
2019-03-15T05:18:35.037Z,96582.59
2019-03-15T05:21:05.861Z,96584.30
2019-03-15T05:23:37.651Z,96590.28
2019-03-15T05:26:09.240Z,96585.48
2019-03-15T05:28:40.708Z,96595.17
2019-03-15T05:31:12.412Z,96602.58
2019-03-15T05:33:43.359Z,96605.46
2019-03-15T05:36:14.942Z,96593.09
2019-03-15T05:38:46.597Z,96605.25
2019-03-15T05:41:17.902Z,96613.11
2019-03-15T05:43:49.343Z,96618.64
2019-03-15T05:46:19.980Z,96613.92
2019-03-15T05:49:14.987Z,96617.83
2019-03-15T05:51:46.175Z,96614.52
2019-03-15T05:54:17.695Z,96615.69
2019-03-15T05:56:48.667Z,96619.20
2019-03-15T05:59:21.713Z,96624.15
2019-03-15T06:01:53.836Z,96617.69
2019-03-15T06:04:27.560Z,96620.45
2019-03-15T06:06:58.899Z,96618.55
2019-03-15T06:09:31.461Z,96622.10
2019-03-15T06:12:02.952Z,96618.42
2019-03-15T06:14:46.898Z,96617.87
2019-03-15T06:17:18.137Z,96622.98
2019-03-15T06:19:49.279Z,96625.59
2019-03-15T06:22:20.400Z,96623.48
2019-03-15T06:24:52.389Z,96622.22
2019-03-15T06:27:24.298Z,96631.96
2019-03-15T06:29:55.499Z,96634.17
2019-03-15T06:32:26.248Z,96626.19
2019-03-15T06:34:57.854Z,96624.68
2019-03-15T06:37:28.711Z,96623.53
2019-03-15T06:40:00.050Z,96629.44
2019-03-15T06:42:31.649Z,96630.72
2019-03-15T06:45:03.340Z,96629.48
2019-03-15T06:47:33.945Z,96625.99
2019-03-15T06:50:06.451Z,96623.22
2019-03-15T06:52:39.529Z,96623.52
2019-03-15T06:55:10.529Z,96626.09
2019-03-15T06:57:42.122Z,96621.52
2019-03-15T07:00:13.408Z,96623.08
2019-03-15T07:02:46.050Z,96626.29
2019-03-15T07:05:18.230Z,96630.44
2019-03-15T07:07:49.290Z,96627.93
2019-03-15T07:10:20.436Z,96628.22
2019-03-15T07:12:53.461Z,96631.50
2019-03-15T07:15:24.952Z,96629.80
2019-03-15T07:17:56.253Z,96628.12
2019-03-15T07:20:27.963Z,96628.95
2019-03-15T07:22:59.429Z,96630.59
2019-03-15T07:25:30.342Z,96630.70
2019-03-15T07:28:01.306Z,96637.44
2019-03-15T07:30:32.800Z,96634.45
2019-03-15T07:33:04.356Z,96631.34
2019-03-15T07:35:35.775Z,96627.67
2019-03-15T07:38:06.482Z,96618.22
2019-03-15T07:40:38.867Z,96625.97
2019-03-15T07:43:10.445Z,96621.47
2019-03-15T07:45:41.744Z,96625.37
2019-03-15T07:48:22.497Z,96623.30
2019-03-15T07:50:46.335Z,96622.81
2019-03-15T07:53:17.855Z,96625.83
2019-03-15T07:55:48.923Z,96631.33
2019-03-15T07:58:20.005Z,96624.68
2019-03-15T08:00:50.697Z,96626.59
2019-03-15T08:03:23.369Z,96628.56
2019-03-15T08:05:55.699Z,96621.98
2019-03-15T08:08:27.236Z,96610.95
2019-03-15T08:10:58.626Z,96615.05
2019-03-15T08:13:30.027Z,96613.46
2019-03-15T08:16:00.701Z,96612.62
2019-03-15T08:18:33.485Z,96621.34
2019-03-15T08:21:04.798Z,96608.55
2019-03-15T08:23:35.089Z,96615.17
2019-03-15T08:26:06.508Z,96614.60
2019-03-15T08:28:37.248Z,96605.98
2019-03-15T08:31:09.768Z,96607.15
2019-03-15T08:33:40.761Z,96611.25
2019-03-15T08:36:12.383Z,96601.77
2019-03-15T08:38:47.784Z,96607.27
2019-03-15T08:41:17.451Z,96605.11
2019-03-15T08:43:48.788Z,96611.74
2019-03-15T08:46:20.725Z,96609.13
2019-03-15T08:48:52.882Z,96608.06
2019-03-15T08:51:23.474Z,96603.69
2019-03-15T08:53:55.123Z,96611.08
2019-03-15T08:56:25.888Z,96604.06
2019-03-15T08:58:57.812Z,96601.59
2019-03-15T09:01:28.871Z,96605.91
2019-03-15T09:04:00.655Z,96603.45
2019-03-15T09:06:32.296Z,96610.62
2019-03-15T09:09:04.246Z,96608.67
2019-03-15T09:11:35.671Z,96613.05
2019-03-15T09:14:06.428Z,96598.30
2019-03-15T09:16:38.697Z,96607.06
2019-03-15T09:19:10.152Z,96595.80
2019-03-15T09:21:41.420Z,96597.58
2019-03-15T09:24:12.428Z,96600.83
2019-03-15T09:26:43.478Z,96592.31
2019-03-15T09:29:14.487Z,96599.19
2019-03-15T09:31:48.068Z,96595.69
2019-03-15T09:34:19.235Z,96592.80
2019-03-15T09:36:50.725Z,96601.69
2019-03-15T09:39:22.332Z,96608.48
2019-03-15T09:41:54.214Z,96588.09
2019-03-15T09:44:25.516Z,96596.77
2019-03-15T09:46:56.096Z,96592.84
2019-03-15T09:49:29.531Z,96601.80
2019-03-15T09:52:02.459Z,96605.81
2019-03-15T09:54:34.055Z,96605.43
2019-03-15T09:57:04.349Z,96608.84
2019-03-15T09:59:36.428Z,96618.10
2019-03-15T10:02:08.350Z,96610.89
2019-03-15T10:04:39.781Z,96609.95
2019-03-15T10:07:10.928Z,96615.12
2019-03-15T10:09:46.230Z,96604.34
2019-03-15T10:12:16.325Z,96604.66
2019-03-15T10:14:49.768Z,96595.38
2019-03-15T10:17:23.088Z,96603.80
2019-03-15T10:19:54.982Z,96605.55
2019-03-15T10:22:27.267Z,96587.36
2019-03-15T10:24:59.050Z,96603.34
2019-03-15T10:27:30.731Z,96608.21
2019-03-15T10:30:02.023Z,96609.34
2019-03-15T10:32:33.057Z,96610.59
2019-03-15T10:35:04.500Z,96621.38
2019-03-15T10:37:36.218Z,96613.11
2019-03-15T10:40:10.868Z,96623.83
2019-03-15T10:42:41.501Z,96630.48
2019-03-15T10:45:12.534Z,96636.44
2019-03-15T10:47:43.205Z,96631.87
2019-03-15T10:50:13.985Z,96628.38
2019-03-15T10:52:44.630Z,96628.75
2019-03-15T10:55:16.300Z,96633.16
2019-03-15T10:57:48.026Z,96622.65
2019-03-15T11:00:19.645Z,96629.11
2019-03-15T11:02:50.270Z,96630.85
2019-03-15T11:05:20.904Z,96637.77
2019-03-15T11:07:52.917Z,96635.25
2019-03-15T11:10:23.978Z,96615.91
2019-03-15T11:12:54.619Z,96625.09
2019-03-15T11:15:25.610Z,96629.20
2019-03-15T11:17:56.938Z,96630.36
2019-03-15T11:20:28.601Z,96631.19
2019-03-15T11:22:59.703Z,96631.20
2019-03-15T11:25:32.208Z,96634.97
2019-03-15T11:28:03.189Z,96631.07
2019-03-15T11:30:34.886Z,96620.50
2019-03-15T11:33:06.226Z,96625.45
2019-03-15T11:35:37.248Z,96628.53
2019-03-15T11:38:09.219Z,96636.09
2019-03-15T11:40:40.481Z,96641.41
2019-03-15T11:43:13.498Z,96634.28
2019-03-15T11:45:44.886Z,96646.84
2019-03-15T11:48:16.499Z,96643.38
2019-03-15T11:50:47.105Z,96649.39
2019-03-15T11:53:19.039Z,96662.22
2019-03-15T11:55:50.396Z,96648.14
2019-03-15T11:58:21.022Z,96649.47
2019-03-15T12:00:51.344Z,96631.84
2019-03-15T12:03:22.491Z,96658.70
2019-03-15T12:05:54.461Z,96639.20
2019-03-15T12:08:26.122Z,96641.65
2019-03-15T12:10:57.535Z,96642.61
2019-03-15T12:13:28.494Z,96650.94
2019-03-15T12:16:26.917Z,96657.78
2019-03-15T12:18:58.531Z,96661.38
2019-03-15T12:21:29.957Z,96656.03
2019-03-15T12:24:00.690Z,96643.50
2019-03-15T12:26:40.350Z,96657.69
2019-03-15T12:29:06.645Z,96662.16
2019-03-15T12:31:39.100Z,96656.34
2019-03-15T12:34:10.955Z,96662.23
2019-03-15T12:36:42.716Z,96645.08
2019-03-15T12:39:14.083Z,96671.95
2019-03-15T12:41:44.844Z,96660.11
2019-03-15T12:44:16.564Z,96660.23
2019-03-15T12:46:47.938Z,96655.80
2019-03-15T12:49:19.538Z,96670.00
2019-03-15T12:51:50.775Z,96667.91
2019-03-15T12:54:21.851Z,96686.05
2019-03-15T12:56:54.224Z,96678.02
2019-03-15T12:59:25.291Z,96677.80
2019-03-15T13:01:56.889Z,96664.80
2019-03-15T13:04:42.471Z,96666.59
2019-03-15T13:07:13.230Z,96662.42
2019-03-15T13:09:45.309Z,96664.20
2019-03-15T13:12:16.631Z,96656.38
2019-03-15T13:14:47.613Z,96637.63
2019-03-15T13:17:23.877Z,96652.50
2019-03-15T13:19:55.762Z,96677.37
2019-03-15T13:22:26.171Z,96655.16
2019-03-15T13:24:57.872Z,96647.23
2019-03-15T13:27:28.906Z,96686.78
2019-03-15T13:29:59.951Z,96693.68
2019-03-15T13:32:32.095Z,96689.34
2019-03-15T13:35:03.786Z,96682.38
2019-03-15T13:37:35.160Z,96686.78
2019-03-15T13:40:07.020Z,96693.11
2019-03-15T13:42:37.944Z,96706.33
2019-03-15T13:45:15.931Z,96706.80
2019-03-15T13:47:56.551Z,96724.86
2019-03-15T13:50:31.582Z,96713.12
2019-03-15T13:53:17.741Z,96712.40
2019-03-15T13:55:49.355Z,96721.39
2019-03-15T13:58:20.662Z,96712.38
2019-03-15T14:00:51.406Z,96729.81
2019-03-15T14:03:22.297Z,96727.02
2019-03-15T14:05:53.692Z,96726.97
2019-03-15T14:08:26.352Z,96708.16
2019-03-15T14:10:58.054Z,96745.55
2019-03-15T14:13:30.285Z,96730.17
2019-03-15T14:16:01.817Z,96734.86
2019-03-15T14:18:33.149Z,96736.18
2019-03-15T14:21:09.715Z,96734.84
2019-03-15T14:23:48.944Z,96743.97
2019-03-15T14:26:20.010Z,96732.42
2019-03-15T14:28:51.481Z,96750.34
2019-03-15T14:31:42.706Z,96748.16
2019-03-15T14:34:14.122Z,96731.52
2019-03-15T14:36:45.131Z,96724.81
2019-03-15T14:39:18.172Z,96735.40
2019-03-15T14:41:49.878Z,96722.25
2019-03-15T14:44:33.516Z,96728.45
2019-03-15T14:47:15.010Z,96743.34
2019-03-15T14:49:57.169Z,96741.41
2019-03-15T14:52:28.542Z,96753.23
2019-03-15T14:55:00.486Z,96740.06
2019-03-15T14:57:31.471Z,96752.95
2019-03-15T15:00:02.521Z,96763.97
2019-03-15T15:02:33.471Z,96747.45
2019-03-15T15:05:04.770Z,96753.22
2019-03-15T15:07:36.772Z,96766.91
2019-03-15T15:10:12.749Z,96766.75
2019-03-15T15:12:44.159Z,96762.83
2019-03-15T15:15:15.657Z,96769.52
2019-03-15T15:17:48.330Z,96756.09
2019-03-15T15:20:21.836Z,96751.88
2019-03-15T15:22:53.781Z,96763.64
2019-03-15T15:25:25.134Z,96761.07
2019-03-15T15:28:04.323Z,96764.48
2019-03-15T15:30:29.684Z,96752.55
2019-03-15T15:33:00.354Z,96749.42
2019-03-15T15:35:32.058Z,96762.94
2019-03-15T15:38:08.917Z,96758.41
2019-03-15T15:40:43.897Z,96777.48
2019-03-15T15:43:17.631Z,96778.97
2019-03-15T15:45:52.673Z,96795.26
2019-03-15T15:48:24.704Z,96772.59
2019-03-15T15:50:56.990Z,96774.09
2019-03-15T15:53:37.589Z,96770.13
2019-03-15T15:56:09.305Z,96768.62
2019-03-15T15:58:51.004Z,96764.69
2019-03-15T16:01:22.721Z,96764.16
2019-03-15T16:03:54.156Z,96765.20
2019-03-15T16:06:37.152Z,96761.27
2019-03-15T16:09:09.185Z,96777.61
2019-03-15T16:11:40.593Z,96774.29
2019-03-15T16:14:13.695Z,96774.98
2019-03-15T16:16:45.324Z,96774.03
2019-03-15T16:19:16.580Z,96768.55
2019-03-15T16:21:49.625Z,96779.27
2019-03-15T16:24:19.929Z,96774.73
2019-03-15T16:26:51.033Z,96772.09
2019-03-15T16:29:22.685Z,96770.03
2019-03-15T16:31:53.541Z,96724.63
2019-03-15T16:34:24.522Z,96743.35
2019-03-15T16:36:56.217Z,96738.58
2019-03-15T16:39:37.345Z,96770.56
2019-03-15T16:42:08.550Z,96765.08
2019-03-15T16:44:40.058Z,96754.62
2019-03-15T16:47:15.546Z,96737.39
2019-03-15T16:49:47.458Z,96717.25
2019-03-15T16:52:18.431Z,96750.16
2019-03-15T16:54:50.169Z,96752.22
2019-03-15T16:57:21.460Z,96753.75
2019-03-15T16:59:53.178Z,96765.95
2019-03-15T17:02:23.850Z,96765.64
2019-03-15T17:04:56.695Z,96762.45
2019-03-15T17:07:27.447Z,96759.08
2019-03-15T17:09:58.988Z,96774.64
2019-03-15T17:12:29.714Z,96763.91
2019-03-15T17:15:01.270Z,96796.27
2019-03-15T17:17:32.338Z,96776.58
2019-03-15T17:20:04.366Z,96786.52
2019-03-15T17:22:35.027Z,96788.16
2019-03-15T17:25:06.642Z,96813.72
2019-03-15T17:27:38.757Z,96805.17
2019-03-15T17:30:11.911Z,96797.32
2019-03-15T17:32:43.821Z,96803.02
2019-03-15T17:35:14.563Z,96799.77
2019-03-15T17:37:45.970Z,96819.81
2019-03-15T17:40:17.132Z,96788.58
2019-03-15T17:42:48.141Z,96833.80
2019-03-15T17:45:19.189Z,96839.00
2019-03-15T17:47:49.709Z,96835.69
2019-03-15T17:50:21.179Z,96848.70
2019-03-15T17:52:57.738Z,96844.75
2019-03-15T17:55:28.906Z,96853.59
2019-03-15T17:58:01.003Z,96849.70
2019-03-15T18:00:42.867Z,96854.71
2019-03-15T18:03:20.811Z,96854.64
2019-03-15T18:05:48.609Z,96868.09
2019-03-15T18:08:19.617Z,96876.13
2019-03-15T18:10:51.318Z,96879.66
2019-03-15T18:13:23.387Z,96881.42
2019-03-15T18:15:58.600Z,96872.84
2019-03-15T18:18:30.086Z,96885.28
2019-03-15T18:21:01.043Z,96889.60
2019-03-15T18:23:32.074Z,96877.02
2019-03-15T18:26:03.414Z,96884.00
2019-03-15T18:28:34.757Z,96881.09
2019-03-15T18:31:05.770Z,96883.58
2019-03-15T18:33:54.993Z,96883.09
2019-03-15T18:36:36.632Z,96885.22
2019-03-15T18:39:09.932Z,96885.44
2019-03-15T18:41:40.997Z,96880.69
2019-03-15T18:44:12.335Z,96898.19
2019-03-15T18:46:47.985Z,96880.74
2019-03-15T18:49:19.039Z,96875.84
2019-03-15T18:51:50.077Z,96872.23
2019-03-15T18:54:21.040Z,96890.46
2019-03-15T18:56:51.704Z,96880.31
2019-03-15T18:59:22.751Z,96880.45
2019-03-15T19:01:54.237Z,96882.13
2019-03-15T19:04:24.872Z,96869.65
2019-03-15T19:07:12.912Z,96892.70
2019-03-15T19:09:53.357Z,96886.88
2019-03-15T19:12:25.764Z,96884.84
2019-03-15T19:14:57.378Z,96872.12
2019-03-15T19:17:31.355Z,96883.70
2019-03-15T19:20:02.946Z,96889.63
2019-03-15T19:22:34.499Z,96888.97
2019-03-15T19:25:11.492Z,96883.98
2019-03-15T19:27:43.502Z,96894.19
2019-03-15T19:30:39.560Z,96902.84
2019-03-15T19:33:19.345Z,96901.47
2019-03-15T19:36:00.066Z,96907.37
2019-03-15T19:38:31.757Z,96891.26
2019-03-15T19:41:02.947Z,96901.08
2019-03-15T19:43:48.720Z,96900.34
2019-03-15T19:46:20.077Z,96899.29
2019-03-15T19:48:51.507Z,96907.39
2019-03-15T19:51:23.539Z,96918.61
2019-03-15T19:53:54.927Z,96909.11
2019-03-15T19:56:26.228Z,96908.58
2019-03-15T19:58:57.576Z,96895.16
2019-03-15T20:01:29.411Z,96917.79
2019-03-15T20:04:01.335Z,96924.66
2019-03-15T20:06:39.582Z,96942.16
2019-03-15T20:09:10.904Z,96943.80
2019-03-15T20:11:42.145Z,96942.75
2019-03-15T20:14:14.501Z,96958.34
2019-03-15T20:16:45.701Z,96954.77
2019-03-15T20:19:20.291Z,96959.34
2019-03-15T20:21:54.785Z,96965.03
2019-03-15T20:24:26.871Z,96969.08
2019-03-15T20:27:00.417Z,96975.24
2019-03-15T20:29:31.678Z,96977.33
2019-03-15T20:32:06.223Z,96966.08
2019-03-15T20:34:44.649Z,96975.44
2019-03-15T20:37:27.095Z,96975.72
2019-03-15T20:39:58.889Z,96981.32
2019-03-15T20:42:34.179Z,96990.80
2019-03-15T20:45:10.845Z,96984.39
2019-03-15T20:47:44.945Z,96991.37
2019-03-15T20:50:16.717Z,96976.64
2019-03-15T20:52:48.325Z,96995.11
2019-03-15T20:55:19.238Z,97001.10
2019-03-15T20:57:50.169Z,97003.73
2019-03-15T21:00:36.050Z,96995.43
2019-03-15T21:03:06.384Z,97003.74
2019-03-15T21:05:38.289Z,97003.09
2019-03-15T21:08:18.145Z,97009.54
2019-03-15T21:10:51.817Z,97012.54
2019-03-15T21:13:22.866Z,97015.85
2019-03-15T21:16:00.251Z,97023.83
2019-03-15T21:18:35.998Z,97033.60
2019-03-15T21:21:07.025Z,97035.58
2019-03-15T21:23:46.023Z,97019.44
2019-03-15T21:26:22.779Z,97029.54
2019-03-15T21:29:00.828Z,97025.75
2019-03-15T21:31:35.683Z,97035.92
2019-03-15T21:34:07.543Z,97031.70
2019-03-15T21:36:40.283Z,97040.40
2019-03-15T21:39:28.519Z,97037.98
2019-03-15T21:42:00.570Z,97032.72
2019-03-15T21:44:32.135Z,97046.18
2019-03-15T21:47:08.441Z,97042.45
2019-03-15T21:49:42.263Z,97042.27
2019-03-15T21:52:19.730Z,97047.61
2019-03-15T21:55:14.216Z,97025.02
2019-03-15T21:57:45.625Z,97040.27
2019-03-15T22:00:17.479Z,97044.12
2019-03-15T22:02:48.955Z,97035.20
2019-03-15T22:05:23.532Z,97039.94
2019-03-15T22:07:56.604Z,97037.81
2019-03-15T22:10:29.098Z,97048.59
2019-03-15T22:13:00.907Z,97052.65
2019-03-15T22:15:32.946Z,97048.95
2019-03-15T22:18:05.032Z,97054.22
2019-03-15T22:20:38.161Z,97048.79
2019-03-15T22:23:20.044Z,97039.34
2019-03-15T22:25:56.830Z,97049.94
2019-03-15T22:28:33.714Z,97069.64
2019-03-15T22:31:16.158Z,97050.87
2019-03-15T22:33:44.001Z,97072.22
2019-03-15T22:36:15.953Z,97068.09
2019-03-15T22:39:00.337Z,97062.77
2019-03-15T22:41:31.437Z,97054.81
2019-03-15T22:44:02.941Z,97059.06
2019-03-15T22:46:38.565Z,97057.39
2019-03-15T22:49:12.645Z,97063.28
2019-03-15T22:51:44.186Z,97055.47
2019-03-15T22:54:15.730Z,97066.87
2019-03-15T22:56:46.399Z,97072.89
2019-03-15T22:59:17.043Z,97052.56
2019-03-15T23:01:48.348Z,97079.81
2019-03-15T23:04:19.542Z,97080.59
2019-03-15T23:06:51.471Z,97075.37
2019-03-15T23:09:30.485Z,97078.70
2019-03-15T23:12:01.142Z,97080.80
2019-03-15T23:14:32.687Z,97083.41
2019-03-15T23:17:07.007Z,97072.88
2019-03-15T23:19:38.715Z,97084.04
2019-03-15T23:22:09.459Z,97089.95
2019-03-15T23:24:46.766Z,97088.39
2019-03-15T23:27:22.794Z,97085.65
2019-03-15T23:29:59.352Z,97080.22
2019-03-15T23:32:36.198Z,97085.35
2019-03-15T23:35:08.983Z,97075.84
2019-03-15T23:37:42.946Z,97083.00
2019-03-15T23:40:13.572Z,97087.38
2019-03-15T23:42:45.331Z,97080.91
2019-03-15T23:45:16.400Z,97081.92
2019-03-15T23:47:48.612Z,97051.99
2019-03-15T23:50:19.637Z,97064.57
2019-03-15T23:52:53.626Z,97069.63
2019-03-15T23:55:27.724Z,97069.63
2019-03-15T23:57:58.387Z,97062.91
